createdAt,value
2022-09-16T00:00:58.851Z,16.40
2022-09-16T00:03:26.854Z,16.30
2022-09-16T00:05:54.772Z,16.30
2022-09-16T00:08:22.905Z,16.30
2022-09-16T00:10:50.901Z,16.30
2022-09-16T00:13:19.565Z,16.20
2022-09-16T00:15:50.985Z,16.20
2022-09-16T00:18:20.484Z,16.20
2022-09-16T00:20:50.294Z,16.20
2022-09-16T00:23:18.948Z,16.20
2022-09-16T00:25:53.735Z,16.20
2022-09-16T00:28:22.786Z,16.10
2022-09-16T00:30:50.807Z,16.10
2022-09-16T00:33:19.332Z,16.10
2022-09-16T00:35:47.547Z,16.10
2022-09-16T00:38:15.225Z,16.10
2022-09-16T00:40:47.493Z,16.10
2022-09-16T00:43:17.103Z,16.10
2022-09-16T00:45:47.677Z,16.10
2022-09-16T00:48:24.056Z,16.10
2022-09-16T00:50:56.661Z,16.00
2022-09-16T00:53:31.265Z,16.00
2022-09-16T00:56:00.975Z,16.00
2022-09-16T00:58:48.593Z,16.00
2022-09-16T01:01:16.335Z,15.90
2022-09-16T01:03:51.250Z,15.90
2022-09-16T01:06:19.493Z,15.90
2022-09-16T01:08:50.044Z,15.90
2022-09-16T01:11:18.173Z,15.90
2022-09-16T01:13:46.957Z,15.90
2022-09-16T01:16:32.678Z,15.80
2022-09-16T01:19:16.441Z,15.80
2022-09-16T01:21:54.696Z,15.80
2022-09-16T01:24:59.810Z,15.80
2022-09-16T01:27:51.441Z,15.80
2022-09-16T01:30:47.900Z,15.70
2022-09-16T01:33:24.288Z,15.70
2022-09-16T01:36:18.745Z,15.70
2022-09-16T01:39:05.053Z,15.60
2022-09-16T01:41:56.619Z,15.60
2022-09-16T01:44:35.852Z,15.60
2022-09-16T01:47:05.760Z,15.60
2022-09-16T01:49:52.523Z,15.60
2022-09-16T01:52:31.464Z,15.60
2022-09-16T01:55:04.536Z,15.60
2022-09-16T01:57:41.155Z,15.60
2022-09-16T02:00:14.336Z,15.60
2022-09-16T02:02:51.420Z,15.60
2022-09-16T02:05:28.245Z,15.60
2022-09-16T02:08:02.758Z,15.60
2022-09-16T02:10:35.532Z,15.60
2022-09-16T02:13:10.620Z,15.70
2022-09-16T02:15:39.623Z,15.60
2022-09-16T02:18:13.355Z,15.70
2022-09-16T02:20:44.812Z,15.70
2022-09-16T02:23:20.648Z,15.70
2022-09-16T02:25:50.401Z,15.70
2022-09-16T02:28:24.688Z,15.70
2022-09-16T02:30:55.254Z,15.70
2022-09-16T02:33:30.360Z,15.60
2022-09-16T02:35:58.969Z,15.60
2022-09-16T02:38:48.056Z,15.60
2022-09-16T02:41:15.914Z,15.70
2022-09-16T02:43:45.207Z,15.70
2022-09-16T02:46:29.212Z,15.70
2022-09-16T02:48:59.731Z,15.70
2022-09-16T02:51:55.447Z,15.70
2022-09-16T02:54:36.712Z,15.70
2022-09-16T02:57:04.838Z,15.70
2022-09-16T02:59:32.698Z,15.70
2022-09-16T03:02:01.387Z,15.70
2022-09-16T03:04:29.575Z,15.70
2022-09-16T03:06:57.435Z,15.60
2022-09-16T03:09:25.062Z,15.70
2022-09-16T03:12:17.526Z,15.60
2022-09-16T03:14:59.742Z,15.60
2022-09-16T03:17:54.748Z,15.60
2022-09-16T03:20:41.508Z,15.60
2022-09-16T03:23:47.163Z,15.60
2022-09-16T03:26:34.483Z,15.60
2022-09-16T03:29:19.926Z,15.60
2022-09-16T03:31:55.317Z,15.50
2022-09-16T03:34:46.566Z,15.50
2022-09-16T03:37:17.313Z,15.50
2022-09-16T03:39:58.125Z,15.50
2022-09-16T03:42:26.086Z,15.50
2022-09-16T03:44:53.574Z,15.50
2022-09-16T03:47:20.852Z,15.50
2022-09-16T03:49:48.210Z,15.50
2022-09-16T03:52:18.499Z,15.50
2022-09-16T03:54:46.107Z,15.50
2022-09-16T03:57:13.360Z,15.50
2022-09-16T03:59:41.079Z,15.50
2022-09-16T04:02:08.587Z,15.50
2022-09-16T04:04:35.788Z,15.50
2022-09-16T04:07:03.000Z,15.50
2022-09-16T04:09:30.396Z,15.50
2022-09-16T04:11:57.897Z,15.50
2022-09-16T04:14:25.307Z,15.50
2022-09-16T04:16:52.656Z,15.50
2022-09-16T04:19:20.344Z,15.50
2022-09-16T04:21:47.830Z,15.50
2022-09-16T04:24:15.236Z,15.50
2022-09-16T04:26:42.982Z,15.50
2022-09-16T04:29:10.772Z,15.50
2022-09-16T04:31:38.519Z,15.50
2022-09-16T04:34:06.407Z,15.50
2022-09-16T04:36:34.167Z,15.60
2022-09-16T04:39:01.610Z,15.50
2022-09-16T04:41:29.216Z,15.60
2022-09-16T04:43:59.479Z,15.50
2022-09-16T04:46:28.928Z,15.50
2022-09-16T04:48:57.196Z,15.50
2022-09-16T04:51:27.175Z,15.50
2022-09-16T04:53:56.339Z,15.50
2022-09-16T04:56:26.632Z,15.50
2022-09-16T04:58:56.416Z,15.50
2022-09-16T05:01:26.722Z,15.50
2022-09-16T05:03:57.461Z,15.50
2022-09-16T05:06:27.430Z,15.50
2022-09-16T05:08:56.771Z,15.50
2022-09-16T05:11:27.512Z,15.50
2022-09-16T05:13:58.633Z,15.50
2022-09-16T05:16:26.875Z,15.50
2022-09-16T05:18:56.346Z,15.50
2022-09-16T05:21:25.796Z,15.50
2022-09-16T05:23:54.018Z,15.50
2022-09-16T05:26:24.648Z,15.50
2022-09-16T05:28:52.392Z,15.50
2022-09-16T05:31:28.409Z,15.50
2022-09-16T05:34:01.709Z,15.50
2022-09-16T05:36:31.855Z,15.50
2022-09-16T05:39:21.574Z,15.50
2022-09-16T05:41:48.162Z,15.60
2022-09-16T05:44:15.880Z,15.60
2022-09-16T05:46:43.943Z,15.60
2022-09-16T05:49:11.960Z,15.60
2022-09-16T05:51:41.338Z,15.70
2022-09-16T05:54:08.787Z,15.70
2022-09-16T05:56:37.536Z,15.70
2022-09-16T05:59:05.416Z,15.70
2022-09-16T06:01:35.679Z,15.70
2022-09-16T06:04:05.812Z,15.70
2022-09-16T06:06:36.038Z,15.80
2022-09-16T06:09:28.499Z,15.80
2022-09-16T06:12:01.630Z,15.80
2022-09-16T06:14:30.178Z,15.90
2022-09-16T06:16:57.736Z,15.90
2022-09-16T06:19:26.612Z,15.90
2022-09-16T06:21:54.020Z,15.90
2022-09-16T06:24:21.846Z,16.00
2022-09-16T06:26:49.392Z,16.00
2022-09-16T06:29:17.632Z,16.10
2022-09-16T06:31:45.371Z,16.10
2022-09-16T06:34:18.558Z,16.20
2022-09-16T06:36:46.541Z,16.30
2022-09-16T06:39:15.817Z,16.30
2022-09-16T06:41:43.653Z,16.40
2022-09-16T06:44:11.596Z,16.40
2022-09-16T06:46:39.283Z,16.50
2022-09-16T06:49:07.026Z,16.50
2022-09-16T06:51:34.976Z,16.50
2022-09-16T06:54:06.629Z,16.60
2022-09-16T06:56:37.511Z,16.70
2022-09-16T06:59:05.983Z,16.70
2022-09-16T07:01:34.371Z,16.70
2022-09-16T07:04:05.362Z,16.80
2022-09-16T07:07:04.934Z,16.90
2022-09-16T07:09:22.416Z,17.00
2022-09-16T07:11:50.319Z,17.20
2022-09-16T07:14:17.847Z,17.40
2022-09-16T07:16:46.142Z,17.70
2022-09-16T07:19:13.552Z,18.00
2022-09-16T07:21:41.735Z,18.30
2022-09-16T07:24:11.801Z,18.80
2022-09-16T07:26:40.662Z,19.30
2022-09-16T07:29:11.595Z,19.80
2022-09-16T07:31:39.104Z,20.30
2022-09-16T07:34:09.731Z,20.60
2022-09-16T07:36:48.245Z,20.90
2022-09-16T07:39:18.267Z,21.10
2022-09-16T07:41:48.393Z,21.40
2022-09-16T07:44:19.254Z,21.70
2022-09-16T07:46:48.020Z,22.20
2022-09-16T07:49:15.515Z,22.70
2022-09-16T07:51:43.528Z,23.10
2022-09-16T07:54:15.728Z,23.50
2022-09-16T07:56:44.307Z,23.80
2022-09-16T07:59:18.397Z,24.10
2022-09-16T08:01:48.315Z,24.30
2022-09-16T08:04:17.766Z,24.50
2022-09-16T08:06:47.253Z,24.60
2022-09-16T08:12:05.313Z,24.60
2022-09-16T08:14:33.535Z,24.70
2022-09-16T08:17:01.990Z,24.90
2022-09-16T08:19:29.979Z,25.00
2022-09-16T08:21:57.685Z,25.20
2022-09-16T08:24:26.484Z,25.30
2022-09-16T08:26:57.756Z,25.20
2022-09-16T08:29:25.795Z,25.00
2022-09-16T08:31:53.217Z,24.70
2022-09-16T08:34:20.801Z,24.30
2022-09-16T08:36:48.675Z,24.10
2022-09-16T08:39:16.432Z,23.80
2022-09-16T08:42:09.914Z,23.60
2022-09-16T08:45:16.140Z,23.30
2022-09-16T08:48:08.132Z,23.00
2022-09-16T08:50:40.851Z,22.70
2022-09-16T08:53:35.016Z,22.60
2022-09-16T08:56:11.657Z,22.80
2022-09-16T08:58:43.493Z,23.10
2022-09-16T09:01:48.336Z,23.30
2022-09-16T09:04:16.569Z,23.60
2022-09-16T09:07:24.022Z,23.90
2022-09-16T09:09:54.226Z,24.10
2022-09-16T09:12:37.054Z,24.10
2022-09-16T09:15:28.352Z,24.00
2022-09-16T09:18:16.187Z,23.80
2022-09-16T09:21:03.970Z,23.50
2022-09-16T09:23:53.725Z,23.10
2022-09-16T09:26:40.795Z,22.70
2022-09-16T09:29:33.825Z,22.30
2022-09-16T09:32:22.032Z,21.90
2022-09-16T09:34:55.221Z,21.70
2022-09-16T09:37:43.349Z,21.60
2022-09-16T09:40:57.388Z,21.60
2022-09-16T09:43:44.945Z,21.70
2022-09-16T09:46:27.510Z,21.80
2022-09-16T09:49:02.256Z,21.90
2022-09-16T09:51:54.857Z,22.00
2022-09-16T09:54:31.653Z,22.00
2022-09-16T09:57:31.304Z,22.00
2022-09-16T10:00:12.078Z,22.00
2022-09-16T10:02:44.934Z,22.00
2022-09-16T10:05:22.746Z,22.00
2022-09-16T10:07:59.237Z,21.90
2022-09-16T10:10:33.549Z,21.90
2022-09-16T10:13:13.002Z,21.80
2022-09-16T10:15:43.228Z,21.80
2022-09-16T10:18:14.616Z,21.70
2022-09-16T10:20:44.416Z,21.70
2022-09-16T10:23:20.499Z,21.60
2022-09-16T10:25:48.176Z,21.60
2022-09-16T10:28:25.709Z,21.50
2022-09-16T10:30:56.257Z,21.40
2022-09-16T10:33:34.441Z,21.40
2022-09-16T10:36:05.448Z,21.30
2022-09-16T10:38:45.995Z,21.20
2022-09-16T10:41:22.140Z,21.10
2022-09-16T10:43:58.891Z,21.00
2022-09-16T10:46:27.767Z,20.90
2022-09-16T10:49:11.717Z,20.90
2022-09-16T10:51:39.084Z,20.90
2022-09-16T10:54:07.028Z,20.90
2022-09-16T10:56:50.212Z,20.80
2022-09-16T10:59:17.872Z,20.90
2022-09-16T11:01:56.073Z,20.90
2022-09-16T11:04:51.651Z,20.90
2022-09-16T11:07:54.018Z,21.00
2022-09-16T11:10:45.352Z,21.10
2022-09-16T11:13:19.451Z,21.30
2022-09-16T11:16:05.715Z,21.40
2022-09-16T11:18:50.658Z,21.40
2022-09-16T11:21:41.639Z,21.40
2022-09-16T11:24:27.021Z,21.40
2022-09-16T11:26:55.891Z,21.40
2022-09-16T11:29:39.562Z,21.40
2022-09-16T11:32:16.023Z,21.40
2022-09-16T11:34:58.653Z,21.30
2022-09-16T11:37:34.294Z,21.20
2022-09-16T11:40:38.808Z,21.10
2022-09-16T11:43:14.007Z,21.10
2022-09-16T11:45:56.858Z,21.10
2022-09-16T11:48:54.367Z,21.10
2022-09-16T11:51:54.912Z,21.20
2022-09-16T11:54:25.605Z,21.30
2022-09-16T11:56:58.111Z,21.20
2022-09-16T11:59:35.056Z,21.20
2022-09-16T12:02:26.307Z,21.20
2022-09-16T12:05:03.279Z,21.20
2022-09-16T12:07:44.636Z,21.30
2022-09-16T12:10:26.469Z,21.30
2022-09-16T12:13:22.246Z,21.40
2022-09-16T12:15:54.827Z,21.60
2022-09-16T12:18:33.185Z,21.70
2022-09-16T12:21:19.583Z,21.70
2022-09-16T12:23:57.602Z,21.80
2022-09-16T12:26:41.964Z,21.90
2022-09-16T12:29:18.333Z,21.90
2022-09-16T12:31:52.313Z,22.00
2022-09-16T12:34:38.264Z,22.10
2022-09-16T12:37:18.654Z,22.10
2022-09-16T12:39:49.484Z,22.20
2022-09-16T12:42:46.069Z,22.10
2022-09-16T12:45:16.947Z,22.00
2022-09-16T12:47:57.518Z,21.90
2022-09-16T12:50:46.977Z,21.80
2022-09-16T12:53:33.023Z,21.70
2022-09-16T12:56:23.986Z,21.60
2022-09-16T12:59:16.842Z,21.40
2022-09-16T13:02:18.569Z,21.30
2022-09-16T13:04:50.980Z,21.20
2022-09-16T13:07:29.611Z,21.10
2022-09-16T13:10:26.462Z,21.10
2022-09-16T13:13:06.048Z,21.10
2022-09-16T13:15:36.596Z,21.00
2022-09-16T13:18:19.231Z,21.00
2022-09-16T13:20:51.853Z,21.00
2022-09-16T13:23:27.680Z,21.00
2022-09-16T13:26:09.794Z,21.00
2022-09-16T13:28:43.351Z,21.00
2022-09-16T13:31:14.100Z,21.00
2022-09-16T13:33:44.419Z,21.10
2022-09-16T13:36:20.429Z,21.10
2022-09-16T13:39:12.812Z,21.10
2022-09-16T13:41:46.075Z,21.10
2022-09-16T13:44:37.126Z,21.10
2022-09-16T13:47:11.281Z,21.10
2022-09-16T13:49:53.372Z,21.20
2022-09-16T13:52:30.492Z,21.20
2022-09-16T13:55:11.404Z,21.20
2022-09-16T13:58:10.104Z,21.20
2022-09-16T14:01:08.643Z,21.20
2022-09-16T14:03:45.908Z,21.10
2022-09-16T14:06:45.984Z,21.10
2022-09-16T14:09:29.037Z,21.00
2022-09-16T14:12:20.139Z,20.90
2022-09-16T14:14:48.372Z,20.80
2022-09-16T14:17:23.285Z,20.70
2022-09-16T14:19:58.098Z,20.70
2022-09-16T14:22:27.427Z,20.70
2022-09-16T14:25:06.106Z,20.60
2022-09-16T14:27:39.399Z,20.60
2022-09-16T14:30:16.607Z,20.60
2022-09-16T14:32:45.432Z,20.60
2022-09-16T14:35:24.077Z,20.60
2022-09-16T14:37:56.899Z,20.60
2022-09-16T14:40:28.529Z,20.50
2022-09-16T14:43:05.647Z,20.50
2022-09-16T14:45:35.488Z,20.40
2022-09-16T14:48:07.653Z,20.30
2022-09-16T14:50:41.844Z,20.30
2022-09-16T14:53:34.734Z,20.30
2022-09-16T14:56:04.379Z,20.20
2022-09-16T14:58:33.505Z,20.20
2022-09-16T15:01:12.239Z,20.10
2022-09-16T15:03:46.243Z,20.10
2022-09-16T15:06:23.956Z,20.10
2022-09-16T15:09:13.295Z,20.00
2022-09-16T15:11:52.328Z,19.80
2022-09-16T15:14:20.704Z,19.70
2022-09-16T15:16:51.923Z,19.60
2022-09-16T15:19:26.167Z,19.50
2022-09-16T15:21:54.213Z,19.40
2022-09-16T15:24:28.779Z,19.30
2022-09-16T15:26:57.547Z,19.20
2022-09-16T15:29:25.087Z,19.20
2022-09-16T15:31:52.813Z,19.10
2022-09-16T15:34:23.075Z,19.10
2022-09-16T15:36:58.491Z,19.00
2022-09-16T15:39:37.911Z,18.90
2022-09-16T15:42:12.142Z,18.80
2022-09-16T15:44:50.130Z,18.80
2022-09-16T15:47:32.819Z,18.70
2022-09-16T15:50:06.517Z,18.70
2022-09-16T15:52:50.426Z,18.70
2022-09-16T15:55:44.117Z,18.70
2022-09-16T15:58:24.159Z,18.70
2022-09-16T16:01:03.345Z,18.70
2022-09-16T16:03:44.699Z,18.60
2022-09-16T16:06:12.531Z,18.60
2022-09-16T16:08:52.520Z,18.60
2022-09-16T16:11:25.661Z,18.50
2022-09-16T16:13:53.014Z,18.40
2022-09-16T16:16:21.504Z,18.40
2022-09-16T16:18:48.954Z,18.40
2022-09-16T16:21:17.299Z,18.30
2022-09-16T16:23:44.851Z,18.30
2022-09-16T16:26:12.267Z,18.30
2022-09-16T16:28:40.811Z,18.20
2022-09-16T16:31:18.600Z,18.10
2022-09-16T16:33:47.815Z,18.10
2022-09-16T16:36:17.538Z,18.00
2022-09-16T16:38:46.200Z,17.90
2022-09-16T16:41:20.084Z,17.80
2022-09-16T16:43:47.607Z,17.70
2022-09-16T16:46:17.466Z,17.60
2022-09-16T16:48:45.251Z,17.50
2022-09-16T16:51:13.351Z,17.40
2022-09-16T16:53:40.878Z,17.30
2022-09-16T16:56:15.452Z,17.20
2022-09-16T16:58:43.123Z,17.20
2022-09-16T17:01:16.333Z,17.10
2022-09-16T17:03:46.397Z,17.00
2022-09-16T17:06:14.061Z,17.00
2022-09-16T17:08:41.693Z,17.00
2022-09-16T17:11:18.400Z,16.90
2022-09-16T17:13:48.988Z,16.80
2022-09-16T17:16:21.901Z,16.80
2022-09-16T17:18:50.732Z,16.70
2022-09-16T17:21:21.142Z,16.70
2022-09-16T17:23:48.657Z,16.50
2022-09-16T17:26:16.688Z,16.50
2022-09-16T17:28:46.059Z,16.40
2022-09-16T17:31:24.269Z,16.30
2022-09-16T17:33:56.027Z,16.20
2022-09-16T17:36:24.569Z,16.20
2022-09-16T17:39:03.810Z,16.20
2022-09-16T17:41:31.813Z,16.10
2022-09-16T17:44:03.925Z,16.00
2022-09-16T17:46:31.524Z,16.00
2022-09-16T17:49:04.117Z,15.90
2022-09-16T17:51:33.576Z,15.90
2022-09-16T17:54:03.909Z,15.90
2022-09-16T17:56:31.790Z,15.90
2022-09-16T17:58:59.115Z,15.90
2022-09-16T18:01:27.059Z,15.80
2022-09-16T18:03:55.865Z,15.70
2022-09-16T18:06:30.880Z,15.70
2022-09-16T18:09:00.966Z,15.60
2022-09-16T18:11:28.731Z,15.60
2022-09-16T18:13:58.347Z,15.50
2022-09-16T18:16:27.680Z,15.50
2022-09-16T18:18:57.879Z,15.50
2022-09-16T18:21:27.580Z,15.40
2022-09-16T18:23:57.538Z,15.40
2022-09-16T18:26:26.896Z,15.40
2022-09-16T18:29:12.391Z,15.30
2022-09-16T18:31:43.506Z,15.30
2022-09-16T18:34:11.861Z,15.30
2022-09-16T18:36:40.240Z,15.20
2022-09-16T18:39:13.188Z,15.20
2022-09-16T18:41:42.669Z,15.20
2022-09-16T18:44:20.018Z,15.10
2022-09-16T18:46:47.746Z,15.10
2022-09-16T18:49:17.098Z,15.10
2022-09-16T18:51:51.945Z,15.00
2022-09-16T18:54:25.861Z,15.00
2022-09-16T18:56:55.897Z,14.90
2022-09-16T18:59:27.725Z,14.90
2022-09-16T19:01:58.516Z,14.80
2022-09-16T19:04:29.004Z,14.80
2022-09-16T19:07:05.702Z,14.70
2022-09-16T19:09:36.072Z,14.60
2022-09-16T19:12:04.056Z,14.60
2022-09-16T19:14:31.568Z,14.50
2022-09-16T19:16:59.287Z,14.40
2022-09-16T19:19:27.002Z,14.40
2022-09-16T19:21:54.743Z,14.30
2022-09-16T19:24:24.995Z,14.20
2022-09-16T19:26:54.846Z,14.20
2022-09-16T19:29:22.616Z,14.10
2022-09-16T19:31:52.845Z,14.00
2022-09-16T19:34:21.544Z,14.00
2022-09-16T19:36:49.628Z,13.90
2022-09-16T19:39:17.600Z,13.80
2022-09-16T19:41:45.568Z,13.80
2022-09-16T19:44:15.962Z,13.80
2022-09-16T19:46:46.664Z,13.70
2022-09-16T19:49:16.790Z,13.70
2022-09-16T19:51:44.220Z,13.70
2022-09-16T19:54:11.978Z,13.60
2022-09-16T19:56:41.048Z,13.60
2022-09-16T19:59:09.068Z,13.60
2022-09-16T20:01:37.575Z,13.50
2022-09-16T20:04:07.585Z,13.50
2022-09-16T20:06:40.535Z,13.50
2022-09-16T20:09:13.577Z,13.50
2022-09-16T20:11:44.106Z,13.50
2022-09-16T20:14:21.898Z,13.40
2022-09-16T20:16:51.637Z,13.40
2022-09-16T20:19:20.051Z,13.40
2022-09-16T20:21:48.689Z,13.40
2022-09-16T20:24:18.731Z,13.40
2022-09-16T20:26:50.480Z,13.40
2022-09-16T20:29:18.745Z,13.40
2022-09-16T20:31:48.219Z,13.40
2022-09-16T20:34:16.779Z,13.30
2022-09-16T20:36:45.971Z,13.30
2022-09-16T20:39:14.315Z,13.20
2022-09-16T20:41:42.480Z,13.20
2022-09-16T20:44:14.750Z,13.20
2022-09-16T20:46:42.115Z,13.10
2022-09-16T20:49:14.547Z,13.10
2022-09-16T20:51:42.476Z,13.10
2022-09-16T20:54:12.107Z,13.00
2022-09-16T20:56:42.168Z,13.00
2022-09-16T20:59:12.099Z,12.90
2022-09-16T21:01:41.459Z,12.90
2022-09-16T21:04:13.693Z,12.90
2022-09-16T21:06:41.643Z,12.90
2022-09-16T21:09:11.554Z,12.90
2022-09-16T21:11:45.131Z,12.90
2022-09-16T21:14:15.906Z,12.90
2022-09-16T21:16:45.786Z,12.90
2022-09-16T21:19:14.271Z,12.90
2022-09-16T21:21:44.333Z,12.90
2022-09-16T21:24:13.026Z,12.90
2022-09-16T21:26:41.345Z,12.90
2022-09-16T21:29:12.431Z,13.00
2022-09-16T21:31:41.698Z,13.00
2022-09-16T21:34:15.389Z,13.00
2022-09-16T21:36:44.375Z,13.00
2022-09-16T21:39:13.699Z,13.00
2022-09-16T21:41:41.967Z,13.00
2022-09-16T21:44:09.652Z,13.00
2022-09-16T21:46:46.339Z,13.00
2022-09-16T21:49:24.179Z,12.90
2022-09-16T21:51:53.794Z,12.90
2022-09-16T21:54:21.980Z,12.80
2022-09-16T21:56:51.075Z,12.80
2022-09-16T21:59:19.836Z,12.80
2022-09-16T22:01:49.862Z,12.70
2022-09-16T22:04:23.950Z,12.60
2022-09-16T22:06:54.834Z,12.60
2022-09-16T22:09:22.834Z,12.60
2022-09-16T22:11:50.335Z,12.50
2022-09-16T22:14:17.876Z,12.50
2022-09-16T22:16:45.653Z,12.50
2022-09-16T22:19:16.595Z,12.40
2022-09-16T22:21:46.429Z,12.40
2022-09-16T22:24:16.099Z,12.40
2022-09-16T22:26:43.705Z,12.40
2022-09-16T22:29:13.127Z,12.30
2022-09-16T22:31:41.926Z,12.30
2022-09-16T22:34:10.043Z,12.30
2022-09-16T22:36:38.381Z,12.30
2022-09-16T22:39:18.241Z,12.30
2022-09-16T22:41:47.240Z,12.20
2022-09-16T22:44:16.014Z,12.20
2022-09-16T22:46:45.458Z,12.20
2022-09-16T22:49:13.333Z,12.20
2022-09-16T22:51:41.814Z,12.20
2022-09-16T22:54:11.383Z,12.10
2022-09-16T22:56:38.734Z,12.20
2022-09-16T22:59:07.804Z,12.10
2022-09-16T23:01:39.778Z,12.10
2022-09-16T23:04:09.312Z,12.10
2022-09-16T23:06:38.204Z,12.10
2022-09-16T23:09:07.369Z,12.10
2022-09-16T23:11:35.963Z,12.10
2022-09-16T23:14:06.315Z,12.10
2022-09-16T23:16:37.491Z,12.10
2022-09-16T23:19:08.459Z,12.10
2022-09-16T23:21:37.109Z,12.10
2022-09-16T23:24:05.663Z,12.00
2022-09-16T23:26:35.834Z,12.00
2022-09-16T23:29:06.226Z,12.00
2022-09-16T23:31:38.195Z,12.00
2022-09-16T23:34:24.971Z,12.00
2022-09-16T23:36:52.303Z,12.00
2022-09-16T23:39:20.000Z,11.90
2022-09-16T23:41:48.781Z,11.90
2022-09-16T23:44:16.571Z,11.90
2022-09-16T23:46:44.707Z,11.90
2022-09-16T23:49:12.979Z,11.80
2022-09-16T23:51:40.631Z,11.80
2022-09-16T23:54:08.580Z,11.80
2022-09-16T23:56:36.286Z,11.80
2022-09-16T23:59:04.219Z,11.80
